createdAt,value
2019-05-10T00:00:56.752Z,13.48
2019-05-10T00:02:18.662Z,14.05
2019-05-10T00:03:41.642Z,14.47
2019-05-10T00:05:03.613Z,12.07
2019-05-10T00:06:25.410Z,13.28
2019-05-10T00:07:47.727Z,12.28
2019-05-10T00:08:51.152Z,11.78
2019-05-10T00:09:54.566Z,12.60
2019-05-10T00:11:01.003Z,13.72
2019-05-10T00:12:12.502Z,12.25
2019-05-10T00:13:18.305Z,14.03
2019-05-10T00:14:34.416Z,13.32
2019-05-10T00:15:38.645Z,13.22
2019-05-10T00:16:43.046Z,12.60
2019-05-10T00:17:48.996Z,13.43
2019-05-10T00:18:53.471Z,13.88
2019-05-10T00:19:57.625Z,12.37
2019-05-10T00:21:02.341Z,14.23
2019-05-10T00:22:06.497Z,14.98
2019-05-10T00:23:10.886Z,17.48
2019-05-10T00:24:14.986Z,13.95
2019-05-10T00:25:19.556Z,13.53
2019-05-10T00:26:23.849Z,16.42
2019-05-10T00:27:28.191Z,13.58
2019-05-10T00:28:33.921Z,15.98
2019-05-10T00:29:38.403Z,17.30
2019-05-10T00:30:44.053Z,14.18
2019-05-10T00:31:49.940Z,14.45
2019-05-10T00:32:55.573Z,14.25
2019-05-10T00:33:59.830Z,14.80
2019-05-10T00:35:09.004Z,14.93
2019-05-10T00:36:13.334Z,16.35
2019-05-10T00:37:17.495Z,13.68
2019-05-10T00:38:21.764Z,13.83
2019-05-10T00:39:25.841Z,14.58
2019-05-10T00:40:30.273Z,15.43
2019-05-10T00:41:36.180Z,15.05
2019-05-10T00:42:40.451Z,14.45
2019-05-10T00:43:46.414Z,18.27
2019-05-10T00:44:53.619Z,16.73
2019-05-10T00:45:57.784Z,17.55
2019-05-10T00:47:02.245Z,12.45
2019-05-10T00:48:06.508Z,15.53
2019-05-10T00:49:10.923Z,13.85
2019-05-10T00:50:15.130Z,14.40
2019-05-10T00:51:19.434Z,16.37
2019-05-10T00:52:23.652Z,13.75
2019-05-10T00:53:28.226Z,13.78
2019-05-10T00:54:32.515Z,15.53
2019-05-10T00:55:38.410Z,15.65
2019-05-10T00:56:42.687Z,16.15
2019-05-10T00:57:46.992Z,15.35
2019-05-10T00:58:51.200Z,14.20
2019-05-10T00:59:55.606Z,14.03
2019-05-10T01:00:59.787Z,14.63
2019-05-10T01:02:04.114Z,15.48
2019-05-10T01:03:08.219Z,18.10
2019-05-10T01:04:12.487Z,16.90
2019-05-10T01:05:16.680Z,15.32
2019-05-10T01:06:20.964Z,15.18
2019-05-10T01:07:25.040Z,14.38
2019-05-10T01:08:29.302Z,14.60
2019-05-10T01:09:33.540Z,15.13
2019-05-10T01:10:37.876Z,15.00
2019-05-10T01:11:42.111Z,18.57
2019-05-10T01:12:47.572Z,15.65
2019-05-10T01:13:51.691Z,16.48
2019-05-10T01:14:56.024Z,15.20
2019-05-10T01:16:00.132Z,15.13
2019-05-10T01:17:04.524Z,14.38
2019-05-10T01:18:08.619Z,15.25
2019-05-10T01:19:14.485Z,15.30
2019-05-10T01:20:18.736Z,17.27
2019-05-10T01:21:23.040Z,16.82
2019-05-10T01:22:28.574Z,16.95
2019-05-10T01:23:32.865Z,16.62
2019-05-10T01:24:42.427Z,16.93
2019-05-10T01:25:46.786Z,14.58
2019-05-10T01:26:52.112Z,15.68
2019-05-10T01:27:56.292Z,15.40
2019-05-10T01:29:00.373Z,14.70
2019-05-10T01:30:06.618Z,14.87
2019-05-10T01:31:10.706Z,14.30
2019-05-10T01:32:15.138Z,14.00
2019-05-10T01:33:19.301Z,15.48
2019-05-10T01:34:23.514Z,16.17
2019-05-10T01:35:27.756Z,16.65
2019-05-10T01:36:33.637Z,15.78
2019-05-10T01:37:37.800Z,16.42
2019-05-10T01:38:42.209Z,19.17
2019-05-10T01:39:46.316Z,15.80
2019-05-10T01:40:50.596Z,15.90
2019-05-10T01:41:54.730Z,14.43
2019-05-10T01:42:59.010Z,19.42
2019-05-10T01:44:03.184Z,17.40
2019-05-10T01:45:09.260Z,15.45
2019-05-10T01:46:13.338Z,17.20
2019-05-10T01:47:18.721Z,17.77
2019-05-10T01:48:28.551Z,19.70
2019-05-10T01:49:32.878Z,18.02
2019-05-10T01:50:39.314Z,15.75
2019-05-10T01:51:42.764Z,16.97
2019-05-10T01:52:46.861Z,15.93
2019-05-10T01:53:51.133Z,17.48
2019-05-10T01:54:55.296Z,17.27
2019-05-10T01:56:02.615Z,16.35
2019-05-10T01:57:12.948Z,15.63
2019-05-10T01:59:25.357Z,16.32
2019-05-10T02:00:33.749Z,17.37
2019-05-10T02:01:37.279Z,17.23
2019-05-10T02:02:41.627Z,21.20
2019-05-10T02:03:45.769Z,15.75
2019-05-10T02:04:50.214Z,17.52
2019-05-10T02:05:54.296Z,21.68
2019-05-10T02:06:58.676Z,17.00
2019-05-10T02:08:02.752Z,17.35
2019-05-10T02:09:08.080Z,16.70
2019-05-10T02:10:12.712Z,16.48
2019-05-10T02:11:17.156Z,17.50
2019-05-10T02:12:21.354Z,16.73
2019-05-10T02:13:25.624Z,17.48
2019-05-10T02:14:29.712Z,21.12
2019-05-10T02:15:34.000Z,17.20
2019-05-10T02:16:38.145Z,19.48
2019-05-10T02:17:42.522Z,17.10
2019-05-10T02:18:46.638Z,16.27
2019-05-10T02:19:54.049Z,18.35
2019-05-10T02:20:58.158Z,16.65
2019-05-10T02:22:02.545Z,17.92
2019-05-10T02:23:06.701Z,17.90
2019-05-10T02:24:11.018Z,17.35
2019-05-10T02:25:15.226Z,17.70
2019-05-10T02:26:21.042Z,17.55
2019-05-10T02:27:26.640Z,16.97
2019-05-10T02:28:31.000Z,20.10
2019-05-10T02:29:36.640Z,17.20
2019-05-10T02:30:43.327Z,16.10
2019-05-10T02:31:47.598Z,16.75
2019-05-10T02:32:51.975Z,16.60
2019-05-10T02:33:57.680Z,16.02
2019-05-10T02:35:03.526Z,18.23
2019-05-10T02:36:07.798Z,18.98
2019-05-10T02:37:12.087Z,16.62
2019-05-10T02:38:16.197Z,17.25
2019-05-10T02:39:20.592Z,19.10
2019-05-10T02:40:24.911Z,17.42
2019-05-10T02:41:29.346Z,17.02
2019-05-10T02:42:34.052Z,18.95
2019-05-10T02:43:38.455Z,17.48
2019-05-10T02:44:42.539Z,17.98
2019-05-10T02:45:46.858Z,16.45
2019-05-10T02:46:50.951Z,16.85
2019-05-10T02:47:55.249Z,18.40
2019-05-10T02:48:59.314Z,19.07
2019-05-10T02:50:05.321Z,18.73
2019-05-10T02:51:09.422Z,18.73
2019-05-10T02:52:13.747Z,16.42
2019-05-10T02:53:17.911Z,14.87
2019-05-10T02:54:24.401Z,17.77
2019-05-10T02:55:28.773Z,18.52
2019-05-10T02:56:34.681Z,17.27
2019-05-10T02:57:40.441Z,16.30
2019-05-10T02:58:45.968Z,15.45
2019-05-10T02:59:51.041Z,15.50
2019-05-10T03:00:55.959Z,17.73
2019-05-10T03:02:03.123Z,15.23
2019-05-10T03:03:08.689Z,16.50
2019-05-10T03:04:15.295Z,18.60
2019-05-10T03:05:19.560Z,18.65
2019-05-10T03:06:26.480Z,18.02
2019-05-10T03:07:33.773Z,17.52
2019-05-10T03:08:50.955Z,16.87
2019-05-10T03:09:57.975Z,18.02
2019-05-10T03:11:04.436Z,16.23
2019-05-10T03:12:23.959Z,16.77
2019-05-10T03:13:31.478Z,19.32
2019-05-10T03:14:38.883Z,19.55
2019-05-10T03:15:45.784Z,16.93
2019-05-10T03:16:52.925Z,19.95
2019-05-10T03:17:57.894Z,17.37
2019-05-10T03:19:03.863Z,19.87
2019-05-10T03:20:09.599Z,19.27
2019-05-10T03:21:16.863Z,20.25
2019-05-10T03:22:22.065Z,21.15
2019-05-10T03:23:27.168Z,20.77
2019-05-10T03:24:31.265Z,18.57
2019-05-10T03:25:37.073Z,21.70
2019-05-10T03:26:50.629Z,20.80
2019-05-10T03:27:49.348Z,23.25
2019-05-10T03:28:53.454Z,18.12
2019-05-10T03:29:57.730Z,19.60
2019-05-10T03:31:03.065Z,18.80
2019-05-10T03:32:07.435Z,17.37
2019-05-10T03:33:11.740Z,17.12
2019-05-10T03:34:16.077Z,19.20
2019-05-10T03:35:20.183Z,16.20
2019-05-10T03:36:24.478Z,22.50
2019-05-10T03:37:28.739Z,20.23
2019-05-10T03:38:33.025Z,18.95
2019-05-10T03:39:37.245Z,19.02
2019-05-10T03:40:41.589Z,17.65
2019-05-10T03:41:47.343Z,17.75
2019-05-10T03:42:51.718Z,19.95
2019-05-10T03:43:55.873Z,19.90
2019-05-10T03:45:00.217Z,19.35
2019-05-10T03:46:09.060Z,17.48
2019-05-10T03:47:13.411Z,18.30
2019-05-10T03:48:17.516Z,16.52
2019-05-10T03:49:21.752Z,19.15
2019-05-10T03:50:28.657Z,20.05
2019-05-10T03:51:32.942Z,21.57
2019-05-10T03:52:37.130Z,18.42
2019-05-10T03:53:41.485Z,18.30
2019-05-10T03:54:45.610Z,17.02
2019-05-10T03:55:49.861Z,20.12
2019-05-10T03:57:10.762Z,19.25
2019-05-10T03:57:59.969Z,19.87
2019-05-10T03:59:04.214Z,22.52
2019-05-10T04:00:10.974Z,19.52
2019-05-10T04:01:17.264Z,19.20
2019-05-10T04:02:21.601Z,20.30
2019-05-10T04:03:25.697Z,19.57
2019-05-10T04:04:30.057Z,18.62
2019-05-10T04:05:34.144Z,22.95
2019-05-10T04:06:38.494Z,18.80
2019-05-10T04:07:42.720Z,20.82
2019-05-10T04:08:47.146Z,23.67
2019-05-10T04:09:51.223Z,19.23
2019-05-10T04:10:55.486Z,22.73
2019-05-10T04:11:59.636Z,20.35
2019-05-10T04:13:04.078Z,20.72
2019-05-10T04:14:08.327Z,21.23
2019-05-10T04:15:12.815Z,19.40
2019-05-10T04:16:19.653Z,22.07
2019-05-10T04:17:24.070Z,20.70
2019-05-10T04:18:28.301Z,22.75
2019-05-10T04:19:32.646Z,20.32
2019-05-10T04:20:36.741Z,20.68
2019-05-10T04:21:41.093Z,19.37
2019-05-10T04:22:48.244Z,19.52
2019-05-10T04:23:54.008Z,21.30
2019-05-10T04:24:58.094Z,21.10
2019-05-10T04:26:02.376Z,21.07
2019-05-10T04:27:06.452Z,20.97
2019-05-10T04:28:10.728Z,21.80
2019-05-10T04:29:14.816Z,21.23
2019-05-10T04:30:19.323Z,22.40
2019-05-10T04:31:23.574Z,20.08
2019-05-10T04:32:27.890Z,21.60
2019-05-10T04:33:31.988Z,22.85
2019-05-10T04:34:36.259Z,20.10
2019-05-10T04:35:40.373Z,19.30
2019-05-10T04:36:44.754Z,23.42
2019-05-10T04:37:49.000Z,22.10
2019-05-10T04:38:53.274Z,22.00
2019-05-10T04:39:57.392Z,23.62
2019-05-10T04:41:01.663Z,21.52
2019-05-10T04:42:05.738Z,23.57
2019-05-10T04:43:10.198Z,22.45
2019-05-10T04:44:14.404Z,21.60
2019-05-10T04:45:18.815Z,21.57
2019-05-10T04:46:22.983Z,24.60
2019-05-10T04:47:27.267Z,22.20
2019-05-10T04:48:31.494Z,23.25
2019-05-10T04:49:35.988Z,23.42
2019-05-10T04:50:40.084Z,23.50
2019-05-10T04:51:44.353Z,22.15
2019-05-10T04:52:48.520Z,23.90
2019-05-10T04:53:52.870Z,22.40
2019-05-10T04:54:56.965Z,22.77
2019-05-10T04:56:01.353Z,20.52
2019-05-10T04:57:05.427Z,24.02
2019-05-10T04:58:09.757Z,25.25
2019-05-10T04:59:13.890Z,22.90
2019-05-10T05:00:18.406Z,23.05
2019-05-10T05:01:22.494Z,22.48
2019-05-10T05:02:26.827Z,22.32
2019-05-10T05:03:30.900Z,19.45
2019-05-10T05:04:35.290Z,23.05
2019-05-10T05:05:39.441Z,22.17
2019-05-10T05:06:43.721Z,22.52
2019-05-10T05:07:47.795Z,21.05
2019-05-10T05:08:52.120Z,20.85
2019-05-10T05:09:56.306Z,22.80
2019-05-10T05:11:00.590Z,24.57
2019-05-10T05:12:04.858Z,23.95
2019-05-10T05:13:09.087Z,23.32
2019-05-10T05:14:13.164Z,26.75
2019-05-10T05:15:17.640Z,25.02
2019-05-10T05:16:23.310Z,24.63
2019-05-10T05:17:27.586Z,25.80
2019-05-10T05:18:31.669Z,24.52
2019-05-10T05:19:36.072Z,22.10
2019-05-10T05:20:40.219Z,23.80
2019-05-10T05:21:44.549Z,24.15
2019-05-10T05:22:48.871Z,21.55
2019-05-10T05:23:53.239Z,23.18
2019-05-10T05:25:01.292Z,22.32
2019-05-10T05:26:03.469Z,22.32
2019-05-10T05:27:07.750Z,23.30
2019-05-10T05:28:12.036Z,22.07
2019-05-10T05:29:16.391Z,22.90
2019-05-10T05:30:20.862Z,22.90
2019-05-10T05:31:25.307Z,21.00
2019-05-10T05:32:29.724Z,23.47
2019-05-10T05:33:33.995Z,22.62
2019-05-10T05:34:38.288Z,23.07
2019-05-10T05:35:42.561Z,23.12
2019-05-10T05:36:46.802Z,24.15
2019-05-10T05:37:51.093Z,25.02
2019-05-10T05:38:55.511Z,21.42
2019-05-10T05:39:59.783Z,23.30
2019-05-10T05:41:04.183Z,22.75
2019-05-10T05:42:08.465Z,23.40
2019-05-10T05:43:12.713Z,21.60
2019-05-10T05:44:20.327Z,23.22
2019-05-10T05:45:23.024Z,22.13
2019-05-10T05:46:27.341Z,34.23
2019-05-10T05:47:37.561Z,27.37
2019-05-10T05:48:40.305Z,24.18
2019-05-10T05:49:44.695Z,23.25
2019-05-10T05:50:49.003Z,25.70
2019-05-10T05:51:54.333Z,26.62
2019-05-10T05:53:01.735Z,25.82
2019-05-10T05:54:06.109Z,22.48
2019-05-10T05:55:10.969Z,25.72
2019-05-10T05:56:15.321Z,21.55
2019-05-10T05:57:22.260Z,22.58
2019-05-10T05:58:26.951Z,24.90
2019-05-10T05:59:31.612Z,24.87
2019-05-10T06:00:43.966Z,26.20
2019-05-10T06:01:43.316Z,26.17
2019-05-10T06:02:47.625Z,24.18
2019-05-10T06:03:51.982Z,26.37
2019-05-10T06:04:59.210Z,27.15
2019-05-10T06:06:15.410Z,26.02
2019-05-10T06:07:09.446Z,26.93
2019-05-10T06:08:22.950Z,24.15
2019-05-10T06:09:19.824Z,23.42
2019-05-10T06:10:24.157Z,22.60
2019-05-10T06:11:35.986Z,27.25
2019-05-10T06:12:44.466Z,26.40
2019-05-10T06:13:48.218Z,25.57
2019-05-10T06:14:54.035Z,21.93
2019-05-10T06:16:00.725Z,23.60
2019-05-10T06:17:08.211Z,25.75
2019-05-10T06:18:12.253Z,24.47
2019-05-10T06:19:27.279Z,25.52
2019-05-10T06:20:27.326Z,28.47
2019-05-10T06:21:31.729Z,24.92
2019-05-10T06:22:43.705Z,24.25
2019-05-10T06:23:45.285Z,23.32
2019-05-10T06:24:52.466Z,23.15
2019-05-10T06:25:57.472Z,25.17
2019-05-10T06:27:03.461Z,23.05
2019-05-10T06:28:25.135Z,25.05
2019-05-10T06:29:19.695Z,24.43
2019-05-10T06:30:26.427Z,26.05
2019-05-10T06:31:30.983Z,29.10
2019-05-10T06:32:35.331Z,27.58
2019-05-10T06:33:44.801Z,26.12
2019-05-10T06:34:45.856Z,25.43
2019-05-10T06:35:53.413Z,28.42
2019-05-10T06:36:57.915Z,29.40
2019-05-10T06:38:02.237Z,27.75
2019-05-10T06:39:08.201Z,29.90
2019-05-10T06:40:12.813Z,25.97
2019-05-10T06:41:19.221Z,28.55
2019-05-10T06:42:28.758Z,26.20
2019-05-10T06:43:30.821Z,30.02
2019-05-10T06:44:35.166Z,27.17
2019-05-10T06:45:41.444Z,28.23
2019-05-10T06:46:45.684Z,28.83
2019-05-10T06:47:53.332Z,34.08
2019-05-10T06:49:07.415Z,27.07
2019-05-10T06:50:05.003Z,31.33
2019-05-10T06:51:12.323Z,34.20
2019-05-10T06:52:16.436Z,32.93
2019-05-10T06:53:23.242Z,29.20
2019-05-10T06:54:26.904Z,29.82
2019-05-10T06:55:31.181Z,28.47
2019-05-10T06:56:35.518Z,26.50
2019-05-10T06:57:39.929Z,28.27
2019-05-10T06:58:44.207Z,33.55
2019-05-10T06:59:48.545Z,28.20
2019-05-10T07:00:53.122Z,29.42
2019-05-10T07:01:58.639Z,26.90
2019-05-10T07:03:03.158Z,26.00
2019-05-10T07:04:07.488Z,26.52
2019-05-10T07:05:11.763Z,25.75
2019-05-10T07:06:16.419Z,28.12
2019-05-10T07:07:42.661Z,27.50
2019-05-10T07:08:26.757Z,27.40
2019-05-10T07:10:00.033Z,24.70
2019-05-10T07:10:37.030Z,31.00
2019-05-10T07:11:41.429Z,27.22
2019-05-10T07:12:45.831Z,25.77
2019-05-10T07:13:53.022Z,25.75
2019-05-10T07:14:57.876Z,26.17
2019-05-10T07:16:03.351Z,22.85
2019-05-10T07:17:07.636Z,26.45
2019-05-10T07:18:16.901Z,29.57
2019-05-10T07:19:20.738Z,21.62
2019-05-10T07:20:29.866Z,24.57
2019-05-10T07:21:39.025Z,22.62
2019-05-10T07:22:41.171Z,21.82
2019-05-10T07:23:47.889Z,21.87
2019-05-10T07:24:57.178Z,22.67
2019-05-10T07:25:58.229Z,29.05
2019-05-10T07:27:05.554Z,21.52
2019-05-10T07:28:09.533Z,25.45
2019-05-10T07:29:29.046Z,21.27
2019-05-10T07:30:29.933Z,25.12
2019-05-10T07:31:34.368Z,21.02
2019-05-10T07:32:38.783Z,23.10
2019-05-10T07:33:43.186Z,20.82
2019-05-10T07:34:58.315Z,19.20
2019-05-10T07:35:55.793Z,21.35
2019-05-10T07:37:01.949Z,19.20
2019-05-10T07:38:06.293Z,18.35
2019-05-10T07:39:10.751Z,17.98
2019-05-10T07:40:15.390Z,20.92
2019-05-10T07:41:26.507Z,16.90
2019-05-10T07:42:25.959Z,19.30
2019-05-10T07:43:30.207Z,18.00
2019-05-10T07:44:34.536Z,19.40
2019-05-10T07:45:39.076Z,18.48
2019-05-10T07:46:47.150Z,15.65
2019-05-10T07:47:51.040Z,13.75
2019-05-10T07:48:55.487Z,19.60
2019-05-10T07:50:03.927Z,15.98
2019-05-10T07:51:05.871Z,14.13
2019-05-10T07:52:10.258Z,16.85
2019-05-10T07:53:23.002Z,16.12
2019-05-10T07:54:23.211Z,15.95
2019-05-10T07:55:30.129Z,15.48
2019-05-10T07:56:38.795Z,14.15
2019-05-10T07:57:40.794Z,15.08
2019-05-10T07:58:45.225Z,16.57
2019-05-10T07:59:51.046Z,16.95
2019-05-10T08:00:56.169Z,18.55
2019-05-10T08:02:06.031Z,16.93
2019-05-10T08:03:15.880Z,17.50
2019-05-10T08:04:19.710Z,15.58
2019-05-10T08:05:20.625Z,16.67
2019-05-10T08:06:24.997Z,16.37
2019-05-10T08:07:29.513Z,17.50
2019-05-10T08:08:33.835Z,17.50
2019-05-10T08:09:44.724Z,20.45
2019-05-10T08:10:45.541Z,19.40
2019-05-10T08:11:54.067Z,15.88
2019-05-10T08:12:56.040Z,17.45
2019-05-10T08:14:06.101Z,16.05
2019-05-10T08:15:09.490Z,15.38
2019-05-10T08:16:19.651Z,13.70
2019-05-10T08:17:19.869Z,13.22
2019-05-10T08:18:25.552Z,15.48
2019-05-10T08:19:32.904Z,13.90
2019-05-10T08:20:46.638Z,15.63
2019-05-10T08:21:42.005Z,14.25
2019-05-10T08:22:47.798Z,16.20
2019-05-10T08:23:54.003Z,14.80
2019-05-10T08:24:58.171Z,19.23
2019-05-10T08:26:04.557Z,16.07
2019-05-10T08:27:13.965Z,15.80
2019-05-10T08:28:14.452Z,16.02
2019-05-10T08:29:18.752Z,16.15
2019-05-10T08:30:42.734Z,14.18
2019-05-10T08:31:52.305Z,14.05
2019-05-10T08:32:52.598Z,14.50
2019-05-10T08:33:59.035Z,15.95
2019-05-10T08:35:05.319Z,14.85
2019-05-10T08:36:08.815Z,14.25
2019-05-10T08:37:19.315Z,17.12
2019-05-10T08:38:19.099Z,14.35
2019-05-10T08:39:23.442Z,15.38
2019-05-10T08:40:34.226Z,17.05
2019-05-10T08:41:33.895Z,17.20
2019-05-10T08:42:45.318Z,15.68
2019-05-10T08:43:44.255Z,16.42
2019-05-10T08:44:54.131Z,14.50
2019-05-10T08:45:57.729Z,15.43
2019-05-10T08:47:02.251Z,15.05
2019-05-10T08:48:07.271Z,16.00
2019-05-10T08:49:12.989Z,15.80
2019-05-10T08:50:34.534Z,17.45
2019-05-10T08:51:23.371Z,16.75
2019-05-10T08:52:31.664Z,14.63
2019-05-10T08:53:33.624Z,14.80
2019-05-10T08:54:42.280Z,14.53
2019-05-10T08:55:46.701Z,14.00
2019-05-10T08:56:53.058Z,20.12
2019-05-10T08:57:56.851Z,15.45
2019-05-10T08:59:03.661Z,14.45
2019-05-10T09:00:12.749Z,13.68
2019-05-10T09:01:26.737Z,14.50
2019-05-10T09:02:28.884Z,12.70
2019-05-10T09:03:28.150Z,14.58
2019-05-10T09:04:42.223Z,13.10
2019-05-10T09:05:39.976Z,13.95
2019-05-10T09:06:47.548Z,13.98
2019-05-10T09:07:52.118Z,13.55
2019-05-10T09:09:01.553Z,14.38
2019-05-10T09:10:02.398Z,15.23
2019-05-10T09:11:07.195Z,12.73
2019-05-10T09:12:12.370Z,13.32
2019-05-10T09:13:16.871Z,13.75
2019-05-10T09:14:24.020Z,14.87
2019-05-10T09:15:27.188Z,13.65
2019-05-10T09:16:39.261Z,14.83
2019-05-10T09:17:37.493Z,23.35
2019-05-10T09:18:46.130Z,30.27
2019-05-10T09:19:47.689Z,18.40
2019-05-10T09:20:54.581Z,20.70
2019-05-10T09:21:58.081Z,16.70
2019-05-10T09:23:08.537Z,14.38
2019-05-10T09:24:12.799Z,13.68
2019-05-10T09:25:20.264Z,14.13
2019-05-10T09:26:25.619Z,13.55
2019-05-10T09:27:33.443Z,13.68
2019-05-10T09:28:39.378Z,14.10
2019-05-10T09:29:43.792Z,16.15
2019-05-10T09:31:00.064Z,13.95
2019-05-10T09:31:55.172Z,13.95
2019-05-10T09:33:00.986Z,14.40
2019-05-10T09:34:05.538Z,14.47
2019-05-10T09:35:12.533Z,13.30
2019-05-10T09:36:16.102Z,11.85
2019-05-10T09:37:22.826Z,10.30
2019-05-10T09:38:28.612Z,12.03
2019-05-10T09:39:33.345Z,15.48
2019-05-10T09:40:42.656Z,12.37
2019-05-10T09:41:44.748Z,12.13
2019-05-10T09:42:49.315Z,13.08
2019-05-10T09:43:53.889Z,11.03
2019-05-10T09:44:58.274Z,11.90
2019-05-10T09:46:02.895Z,10.93
2019-05-10T09:47:07.455Z,10.80
2019-05-10T09:48:12.259Z,10.65
2019-05-10T09:49:18.488Z,10.53
2019-05-10T09:50:23.028Z,10.53
2019-05-10T09:51:30.055Z,10.93
2019-05-10T09:52:33.218Z,14.23
2019-05-10T09:53:38.460Z,12.70
2019-05-10T09:54:42.862Z,10.58
2019-05-10T09:55:55.039Z,16.05
2019-05-10T09:56:53.072Z,12.73
2019-05-10T09:57:58.380Z,12.78
2019-05-10T09:59:03.076Z,14.20
2019-05-10T10:00:07.672Z,13.53
2019-05-10T10:01:17.961Z,11.45
2019-05-10T10:02:18.969Z,12.25
2019-05-10T10:03:23.470Z,11.10
2019-05-10T10:04:28.112Z,13.43
2019-05-10T10:05:34.128Z,13.40
2019-05-10T10:06:41.854Z,14.75
2019-05-10T10:07:44.513Z,13.20
2019-05-10T10:08:53.341Z,13.43
2019-05-10T10:09:57.090Z,13.00
2019-05-10T10:11:13.320Z,12.98
2019-05-10T10:12:12.849Z,11.22
2019-05-10T10:13:35.873Z,13.38
2019-05-10T10:14:23.158Z,12.23
2019-05-10T10:15:33.578Z,10.80
2019-05-10T10:16:33.409Z,12.58
2019-05-10T10:17:42.160Z,10.80
2019-05-10T10:18:44.208Z,9.38
2019-05-10T10:19:48.695Z,10.55
2019-05-10T10:20:54.544Z,9.95
2019-05-10T10:22:00.332Z,11.25
2019-05-10T10:23:09.904Z,13.38
2019-05-10T10:24:20.046Z,10.13
2019-05-10T10:25:20.573Z,10.65
2019-05-10T10:26:26.871Z,10.43
2019-05-10T10:27:34.675Z,10.25
2019-05-10T10:28:39.700Z,10.65
2019-05-10T10:29:47.747Z,12.15
2019-05-10T10:31:03.360Z,10.15
2019-05-10T10:31:59.679Z,11.03
2019-05-10T10:33:05.649Z,12.00
2019-05-10T10:34:10.188Z,13.13
2019-05-10T10:35:26.850Z,12.18
2019-05-10T10:36:28.184Z,11.35
2019-05-10T10:37:33.890Z,11.48
2019-05-10T10:38:45.217Z,11.83
2019-05-10T10:39:44.385Z,12.40
2019-05-10T10:40:50.326Z,12.43
2019-05-10T10:42:02.285Z,12.35
2019-05-10T10:43:00.722Z,12.88
2019-05-10T10:44:05.274Z,12.45
2019-05-10T10:45:10.365Z,12.45
2019-05-10T10:46:17.593Z,12.75
2019-05-10T10:47:22.808Z,13.15
2019-05-10T10:48:29.523Z,11.95
2019-05-10T10:49:33.127Z,11.68
2019-05-10T10:50:37.686Z,11.95
2019-05-10T10:51:49.355Z,12.25
2019-05-10T10:52:57.358Z,12.28
2019-05-10T10:53:59.995Z,13.35
2019-05-10T10:55:11.268Z,12.80
2019-05-10T10:56:12.183Z,12.78
2019-05-10T10:57:20.302Z,11.75
2019-05-10T10:58:34.654Z,12.20
2019-05-10T10:59:37.490Z,11.60
2019-05-10T11:00:42.116Z,12.43
2019-05-10T11:01:56.586Z,13.10
2019-05-10T11:02:55.468Z,13.35
2019-05-10T11:04:03.444Z,14.13
2019-05-10T11:05:08.488Z,11.90
2019-05-10T11:06:19.219Z,13.58
2019-05-10T11:07:24.986Z,15.53
2019-05-10T11:08:33.262Z,13.75
2019-05-10T11:09:46.482Z,13.48
2019-05-10T11:10:50.890Z,13.22
2019-05-10T11:11:56.854Z,14.40
2019-05-10T11:13:07.973Z,13.85
2019-05-10T11:14:07.775Z,13.80
2019-05-10T11:15:21.961Z,13.50
2019-05-10T11:16:25.874Z,14.10
2019-05-10T11:17:32.512Z,14.68
2019-05-10T11:18:41.647Z,13.60
2019-05-10T11:19:46.243Z,16.97
2019-05-10T11:20:53.857Z,20.20
2019-05-10T11:22:04.410Z,22.07
2019-05-10T11:23:05.513Z,22.22
2019-05-10T11:24:17.716Z,19.82
2019-05-10T11:25:17.576Z,18.05
2019-05-10T11:26:26.874Z,17.52
2019-05-10T11:27:31.039Z,16.55
2019-05-10T11:28:43.032Z,15.78
2019-05-10T11:29:43.053Z,17.95
2019-05-10T11:30:47.547Z,15.03
2019-05-10T11:32:12.252Z,15.40
2019-05-10T11:33:02.457Z,13.95
2019-05-10T11:34:06.894Z,15.15
2019-05-10T11:35:20.832Z,14.43
2019-05-10T11:36:21.212Z,15.80
2019-05-10T11:37:34.620Z,14.33
2019-05-10T11:38:33.200Z,15.03
2019-05-10T11:39:45.338Z,16.50
2019-05-10T11:40:45.203Z,17.85
2019-05-10T11:41:52.771Z,20.55
2019-05-10T11:42:55.822Z,18.45
2019-05-10T11:44:05.429Z,19.00
2019-05-10T11:45:07.487Z,19.27
2019-05-10T11:46:14.208Z,19.45
2019-05-10T11:47:24.122Z,18.55
2019-05-10T11:48:29.034Z,18.37
2019-05-10T11:49:30.922Z,21.57
2019-05-10T11:50:35.724Z,20.52
2019-05-10T11:51:41.340Z,21.10
2019-05-10T11:52:46.146Z,25.52
2019-05-10T11:53:55.383Z,22.80
2019-05-10T11:54:58.116Z,23.20
2019-05-10T11:56:07.889Z,27.62
2019-05-10T11:57:12.840Z,29.20
2019-05-10T11:58:14.829Z,27.65
2019-05-10T11:59:21.790Z,27.00
2019-05-10T12:00:34.058Z,25.43
2019-05-10T12:01:34.162Z,24.82
2019-05-10T12:02:59.854Z,23.50
2019-05-10T12:03:55.373Z,26.35
2019-05-10T12:04:52.622Z,25.65
2019-05-10T12:06:06.154Z,24.07
2019-05-10T12:07:08.429Z,26.10
2019-05-10T12:08:12.927Z,23.95
2019-05-10T12:09:18.342Z,25.32
2019-05-10T12:10:25.532Z,24.07
2019-05-10T12:11:33.785Z,25.17
2019-05-10T12:12:54.437Z,25.55
2019-05-10T12:13:42.758Z,24.47
2019-05-10T12:14:47.258Z,24.72
2019-05-10T12:15:52.800Z,24.12
2019-05-10T12:17:05.642Z,23.87
2019-05-10T12:18:05.187Z,23.45
2019-05-10T12:19:19.966Z,25.23
2019-05-10T12:20:30.336Z,24.55
2019-05-10T12:21:33.122Z,23.73
2019-05-10T12:22:42.154Z,25.45
2019-05-10T12:23:50.393Z,25.15
2019-05-10T12:25:14.115Z,24.52
2019-05-10T12:27:09.306Z,24.45
2019-05-10T12:27:18.525Z,25.08
2019-05-10T12:28:09.072Z,22.62
2019-05-10T12:29:17.151Z,24.75
2019-05-10T12:30:21.538Z,24.32
2019-05-10T12:31:25.867Z,24.70
2019-05-10T12:32:35.229Z,25.97
2019-05-10T12:33:37.323Z,24.40
2019-05-10T12:34:46.049Z,25.82
2019-05-10T12:35:47.650Z,22.95
2019-05-10T12:36:52.163Z,23.60
2019-05-10T12:37:56.748Z,23.12
2019-05-10T12:39:02.280Z,21.87
2019-05-10T12:40:11.842Z,21.60
2019-05-10T12:41:14.083Z,24.92
2019-05-10T12:42:18.376Z,26.17
2019-05-10T12:43:22.886Z,25.12
2019-05-10T12:44:27.305Z,26.05
2019-05-10T12:45:33.444Z,23.92
2019-05-10T12:46:39.757Z,26.75
2019-05-10T12:47:43.622Z,23.18
2019-05-10T12:48:48.114Z,22.17
2019-05-10T12:49:53.800Z,23.92
2019-05-10T12:51:04.693Z,27.52
2019-05-10T12:52:09.111Z,27.37
2019-05-10T12:53:15.444Z,28.45
2019-05-10T12:54:18.539Z,24.92
2019-05-10T12:55:23.741Z,26.80
2019-05-10T12:56:28.140Z,28.55
2019-05-10T12:57:32.501Z,24.98
2019-05-10T12:58:36.913Z,26.85
2019-05-10T12:59:41.331Z,23.40
2019-05-10T13:00:46.521Z,24.63
2019-05-10T13:01:51.857Z,23.75
2019-05-10T13:03:11.704Z,22.75
2019-05-10T13:04:13.749Z,23.22
2019-05-10T13:05:09.518Z,23.42
2019-05-10T13:06:13.933Z,25.75
2019-05-10T13:07:18.356Z,25.10
2019-05-10T13:08:22.763Z,24.60
2019-05-10T13:09:39.882Z,27.00
2019-05-10T13:10:37.387Z,26.48
2019-05-10T13:11:39.165Z,23.02
2019-05-10T13:12:46.836Z,24.37
2019-05-10T13:13:49.610Z,26.52
2019-05-10T13:14:54.127Z,25.40
2019-05-10T13:16:03.483Z,25.08
2019-05-10T13:17:11.822Z,26.42
2019-05-10T13:18:15.346Z,32.03
2019-05-10T13:19:20.293Z,28.00
2019-05-10T13:20:30.806Z,25.40
2019-05-10T13:21:31.752Z,27.00
2019-05-10T13:22:37.948Z,26.02
2019-05-10T13:23:43.745Z,27.67
2019-05-10T13:24:48.258Z,32.25
2019-05-10T13:25:52.666Z,26.60
2019-05-10T13:26:57.011Z,29.42
2019-05-10T13:28:01.381Z,27.32
2019-05-10T13:29:08.150Z,25.68
2019-05-10T13:30:12.576Z,25.82
2019-05-10T13:31:20.167Z,22.75
2019-05-10T13:32:24.577Z,27.32
2019-05-10T13:33:41.057Z,26.73
2019-05-10T13:34:37.394Z,25.40
2019-05-10T13:35:41.900Z,26.57
2019-05-10T13:36:46.252Z,24.40
2019-05-10T13:37:50.667Z,23.02
2019-05-10T13:38:57.997Z,24.30
2019-05-10T13:40:05.387Z,26.97
2019-05-10T13:41:08.405Z,26.52
2019-05-10T13:42:14.249Z,29.42
2019-05-10T13:43:26.483Z,26.55
2019-05-10T13:44:24.762Z,26.33
2019-05-10T13:45:31.934Z,25.48
2019-05-10T13:46:35.267Z,26.25
2019-05-10T13:47:39.714Z,28.87
2019-05-10T13:48:51.702Z,28.70
2019-05-10T13:49:56.045Z,29.65
2019-05-10T13:51:00.463Z,26.42
2019-05-10T13:52:04.934Z,25.12
2019-05-10T13:53:19.884Z,26.07
2019-05-10T13:54:15.205Z,24.90
2019-05-10T13:55:19.584Z,22.32
2019-05-10T13:56:25.330Z,26.93
2019-05-10T13:57:29.610Z,24.30
2019-05-10T13:58:34.016Z,23.35
2019-05-10T13:59:39.925Z,27.13
2019-05-10T14:00:44.925Z,25.50
2019-05-10T14:01:51.533Z,25.37
2019-05-10T14:02:57.642Z,25.80
2019-05-10T14:04:03.532Z,25.40
2019-05-10T14:05:12.044Z,23.22